Time;durP1;ratioP1;P1;durP2;ratioP2;P2;SDS_P1;SDS_P2;PMS_P1;PMS_P2;Temp;Humidity;BMP_temperature;BMP_pressure;BME280_temperature;BME280_humidity;BME280_pressure;Samples;Min_cycle;Max_cycle;Signal;HPM_P1;HPM_P2
2023/07/23 00:02:09;;;;;;;3.87;3.57;;;17.50;1.00;;;;;;5053576;28;20186;-69
2023/07/23 00:04:35;;;;;;;4.50;4.10;;;17.50;1.00;;;;;;5053697;28;20190;-70
2023/07/23 00:07:02;;;;;;;4.40;2.93;;;17.50;1.00;;;;;;5053593;28;20267;-69
2023/07/23 00:09:27;;;;;;;4.90;3.60;;;17.50;1.00;;;;;;5053482;28;20241;-69
2023/07/23 00:11:53;;;;;;;5.07;4.10;;;17.50;1.00;;;;;;5053553;28;20445;-69
2023/07/23 00:14:19;;;;;;;4.37;3.20;;;17.50;1.00;;;;;;5053556;28;20726;-69
2023/07/23 00:16:45;;;;;;;3.50;3.20;;;17.40;1.00;;;;;;5053501;28;20425;-70
2023/07/23 00:19:15;;;;;;;3.60;3.30;;;17.40;1.00;;;;;;5053468;28;20805;-69
2023/07/23 00:21:41;;;;;;;3.40;3.10;;;17.40;1.00;;;;;;5053036;28;20594;-69
2023/07/23 00:24:07;;;;;;;7.13;3.13;;;17.40;1.00;;;;;;5053551;28;20417;-69
2023/07/23 00:26:33;;;;;;;3.47;3.07;;;17.30;1.00;;;;;;5053289;28;20464;-71
2023/07/23 00:28:59;;;;;;;3.77;3.47;;;17.30;1.00;;;;;;5053120;28;20293;-70
2023/07/23 00:31:24;;;;;;;3.93;3.53;;;17.40;1.00;;;;;;5053133;28;20831;-69
2023/07/23 00:33:50;;;;;;;3.93;3.10;;;17.40;1.00;;;;;;5052901;28;20531;-70
2023/07/23 00:36:15;;;;;;;3.47;3.17;;;17.40;1.00;;;;;;5053051;28;20198;-69
2023/07/23 00:38:41;;;;;;;4.57;4.07;;;17.40;1.00;;;;;;5052984;28;20260;-69
2023/07/23 00:41:07;;;;;;;8.03;3.80;;;17.40;1.00;;;;;;5053113;28;20175;-69
2023/07/23 00:43:33;;;;;;;3.03;2.73;;;17.40;1.00;;;;;;5052763;28;20177;-69
2023/07/23 00:45:58;;;;;;;4.00;3.50;;;17.50;1.00;;;;;;5052736;28;20548;-71
2023/07/23 00:48:25;;;;;;;4.50;3.63;;;17.50;1.00;;;;;;5052750;28;20224;-69
2023/07/23 00:50:50;;;;;;;3.20;2.90;;;17.50;1.00;;;;;;5052782;28;20269;-69
2023/07/23 00:53:16;;;;;;;5.17;4.03;;;17.40;1.00;;;;;;5052555;28;20504;-69
2023/07/23 00:55:43;;;;;;;3.53;3.23;;;17.40;1.00;;;;;;5052719;28;20244;-69
2023/07/23 00:58:08;;;;;;;5.70;2.77;;;17.40;1.00;;;;;;5052381;28;20695;-70
2023/07/23 01:00:34;;;;;;;4.87;3.43;;;17.40;1.00;;;;;;5052810;28;20424;-70
2023/07/23 01:02:59;;;;;;;3.33;3.00;;;17.40;1.00;;;;;;5052268;28;20185;-69
2023/07/23 01:05:26;;;;;;;3.30;2.77;;;17.30;1.00;;;;;;5051795;28;20261;-69
2023/07/23 01:07:51;;;;;;;3.40;3.10;;;17.30;1.00;;;;;;5052345;28;20191;-69
2023/07/23 01:10:19;;;;;;;4.10;3.37;;;17.30;1.00;;;;;;5052702;28;20412;-70
2023/07/23 01:12:45;;;;;;;4.17;3.37;;;17.30;1.00;;;;;;5052170;28;20175;-69
2023/07/23 01:15:10;;;;;;;3.80;2.63;;;17.30;1.00;;;;;;5051015;28;20797;-69
2023/07/23 01:17:36;;;;;;;3.23;2.93;;;17.30;1.00;;;;;;5052174;28;20627;-70
2023/07/23 01:20:07;;;;;;;3.70;3.30;;;17.30;1.00;;;;;;5052173;28;20189;-69
2023/07/23 01:22:34;;;;;;;3.73;3.00;;;17.30;1.00;;;;;;5052022;28;20436;-69
2023/07/23 01:24:59;;;;;;;3.37;3.00;;;17.20;1.00;;;;;;5052146;28;20410;-69
2023/07/23 01:27:25;;;;;;;5.30;3.57;;;17.20;1.00;;;;;;5051962;28;20485;-69
2023/07/23 01:29:50;;;;;;;3.37;3.07;;;17.20;1.00;;;;;;5051984;28;20228;-70
2023/07/23 01:32:16;;;;;;;3.80;3.40;;;17.10;1.00;;;;;;5051789;28;20193;-69
2023/07/23 01:34:42;;;;;;;4.70;2.80;;;17.10;1.00;;;;;;5052195;28;20590;-69
2023/07/23 01:37:10;;;;;;;3.43;3.13;;;17.10;1.00;;;;;;5051899;28;20187;-70
2023/07/23 01:39:36;;;;;;;3.13;2.70;;;17.10;1.00;;;;;;5051965;28;20412;-70
2023/07/23 01:42:02;;;;;;;3.87;3.00;;;17.00;1.00;;;;;;5051748;28;20891;-70
2023/07/23 01:44:27;;;;;;;4.87;4.37;;;17.00;1.00;;;;;;5051983;28;20544;-69
2023/07/23 01:46:53;;;;;;;3.30;3.00;;;17.00;1.00;;;;;;5051676;28;20464;-70
2023/07/23 01:49:18;;;;;;;3.43;2.70;;;16.90;1.00;;;;;;5051743;28;20195;-70
2023/07/23 01:51:44;;;;;;;4.27;2.77;;;16.90;1.00;;;;;;5051442;28;20182;-69
2023/07/23 01:54:09;;;;;;;3.07;2.73;;;16.90;1.00;;;;;;5051848;28;20183;-71
2023/07/23 01:56:35;;;;;;;4.90;3.47;;;16.90;1.00;;;;;;5051597;28;20179;-70
2023/07/23 01:59:01;;;;;;;3.30;2.10;;;16.80;1.00;;;;;;5052448;28;20615;-70
2023/07/23 02:01:28;;;;;;;5.03;2.90;;;16.80;1.00;;;;;;5051281;28;20659;-70
2023/07/23 02:03:54;;;;;;;2.83;2.53;;;16.80;1.00;;;;;;5051410;28;20413;-69
2023/07/23 02:06:20;;;;;;;3.00;2.60;;;16.80;1.00;;;;;;5051394;28;20530;-69
2023/07/23 02:08:45;;;;;;;3.57;3.10;;;16.80;1.00;;;;;;5051729;28;20202;-69
2023/07/23 02:11:11;;;;;;;3.33;2.93;;;16.80;1.00;;;;;;5051200;28;20182;-69
2023/07/23 02:13:36;;;;;;;4.73;2.80;;;16.80;1.00;;;;;;5051126;28;20204;-69
2023/07/23 02:16:02;;;;;;;3.40;2.90;;;16.80;1.00;;;;;;5050252;28;20197;-68
2023/07/23 02:18:28;;;;;;;4.17;3.20;;;16.80;1.00;;;;;;5051347;28;20278;-69
2023/07/23 02:20:54;;;;;;;3.47;2.60;;;16.70;1.00;;;;;;5051540;28;20417;-68
2023/07/23 02:23:20;;;;;;;3.13;2.60;;;16.80;1.00;;;;;;5049683;28;20433;-69
2023/07/23 02:25:48;;;;;;;5.30;3.20;;;16.70;1.00;;;;;;5051021;28;20206;-69
2023/07/23 02:28:13;;;;;;;3.97;2.67;;;16.70;1.00;;;;;;5051213;28;20289;-69
2023/07/23 02:30:39;;;;;;;4.80;3.10;;;16.70;1.00;;;;;;5051490;28;20447;-68
2023/07/23 02:33:05;;;;;;;7.23;3.00;;;16.70;1.00;;;;;;5051043;28;20194;-69
2023/07/23 02:35:37;;;;;;;3.73;2.97;;;16.60;1.00;;;;;;5051242;28;20187;-68
2023/07/23 02:38:04;;;;;;;3.60;2.60;;;16.60;1.00;;;;;;5051076;28;20244;-69
2023/07/23 02:40:33;;;;;;;5.60;3.33;;;16.60;1.00;;;;;;5051156;28;20417;-68
2023/07/23 02:43:00;;;;;;;4.23;2.77;;;16.50;1.00;;;;;;5050729;28;20409;-68
2023/07/23 02:45:26;;;;;;;4.10;3.27;;;16.50;1.00;;;;;;5051016;28;20405;-68
2023/07/23 02:47:51;;;;;;;3.20;2.67;;;16.50;1.00;;;;;;5050978;28;20444;-68
2023/07/23 02:50:17;;;;;;;4.60;2.70;;;16.40;1.00;;;;;;5051040;28;20187;-68
2023/07/23 02:52:42;;;;;;;3.90;2.83;;;16.30;1.00;;;;;;5051013;28;20178;-69
2023/07/23 02:55:08;;;;;;;4.00;2.60;;;16.30;1.00;;;;;;5051063;28;20178;-70
2023/07/23 02:57:34;;;;;;;3.90;3.00;;;16.30;1.00;;;;;;5050775;28;20671;-69
2023/07/23 02:59:59;;;;;;;3.87;2.90;;;16.30;1.00;;;;;;5050904;28;20197;-69
2023/07/23 03:02:25;;;;;;;3.53;2.90;;;16.20;1.00;;;;;;5050757;28;20182;-69
2023/07/23 03:04:50;;;;;;;3.70;2.47;;;16.20;1.00;;;;;;5051012;28;20548;-68
2023/07/23 03:07:16;;;;;;;4.40;2.57;;;16.20;1.00;;;;;;5050697;28;20259;-69
2023/07/23 03:09:41;;;;;;;4.13;2.43;;;16.20;1.00;;;;;;5050972;28;20718;-68
2023/07/23 03:12:09;;;;;;;3.63;2.70;;;16.20;1.00;;;;;;5050716;28;20593;-70
2023/07/23 03:14:35;;;;;;;3.30;2.67;;;16.20;1.00;;;;;;5050770;28;20169;-69
2023/07/23 03:17:01;;;;;;;3.93;2.90;;;16.10;1.00;;;;;;5050860;28;20419;-69
2023/07/23 03:19:27;;;;;;;3.10;2.10;;;16.10;1.00;;;;;;5050657;28;20210;-69
2023/07/23 03:21:52;;;;;;;4.20;2.90;;;16.10;1.00;;;;;;5050683;28;20210;-69
2023/07/23 03:24:18;;;;;;;2.70;2.30;;;16.10;1.00;;;;;;5050742;28;20883;-69
2023/07/23 03:26:43;;;;;;;3.63;2.40;;;16.10;1.00;;;;;;5050584;28;20663;-69
2023/07/23 03:29:09;;;;;;;4.10;3.57;;;16.10;1.00;;;;;;5053927;28;20213;-69
2023/07/23 03:31:34;;;;;;;3.37;2.73;;;16.10;1.00;;;;;;5054228;28;20533;-69
2023/07/23 03:34:00;;;;;;;4.70;2.60;;;16.00;1.00;;;;;;5054302;28;20678;-69
2023/07/23 03:36:27;;;;;;;3.13;2.73;;;16.00;1.00;;;;;;5054281;28;20254;-69
2023/07/23 03:38:52;;;;;;;5.70;2.90;;;16.00;1.00;;;;;;5054608;28;20216;-69
2023/07/23 03:41:18;;;;;;;3.97;2.87;;;15.90;1.00;;;;;;5053948;28;20420;-69
2023/07/23 03:43:44;;;;;;;3.20;2.37;;;15.90;1.00;;;;;;5053805;28;20186;-70
2023/07/23 03:46:09;;;;;;;4.60;2.93;;;15.80;1.00;;;;;;5054343;28;20224;-69
2023/07/23 03:48:35;;;;;;;2.23;1.90;;;15.80;1.00;;;;;;5053943;28;20240;-69
2023/07/23 03:51:00;;;;;;;3.90;2.47;;;15.80;1.00;;;;;;5054013;28;20177;-68
2023/07/23 03:53:26;;;;;;;3.97;2.87;;;15.80;1.00;;;;;;5053780;28;20178;-69
2023/07/23 03:55:51;;;;;;;3.53;3.20;;;15.80;1.00;;;;;;5053953;28;20190;-69
2023/07/23 03:58:17;;;;;;;4.43;2.47;;;15.70;1.00;;;;;;5053517;28;20216;-68
2023/07/23 04:00:42;;;;;;;5.10;3.20;;;15.70;1.20;;;;;;5053854;28;20191;-68
2023/07/23 04:03:08;;;;;;;3.83;3.00;;;15.70;1.60;;;;;;5053536;28;20535;-68
2023/07/23 04:05:33;;;;;;;3.23;2.77;;;15.70;1.70;;;;;;5053656;28;20209;-68
2023/07/23 04:07:59;;;;;;;4.17;3.57;;;15.70;2.10;;;;;;5053756;28;20671;-69
2023/07/23 04:10:25;;;;;;;5.00;3.63;;;15.70;2.60;;;;;;5053715;28;20180;-68
2023/07/23 04:12:50;;;;;;;4.40;3.80;;;15.70;3.00;;;;;;5053279;28;20219;-68
2023/07/23 04:15:16;;;;;;;4.00;2.97;;;15.70;3.20;;;;;;5053769;28;20186;-68
2023/07/23 04:17:41;;;;;;;5.37;3.83;;;15.70;3.50;;;;;;5053392;28;20206;-68
2023/07/23 04:20:07;;;;;;;3.70;3.03;;;15.70;3.30;;;;;;5053556;28;20220;-69
2023/07/23 04:22:33;;;;;;;3.20;2.70;;;15.80;3.50;;;;;;5053330;28;20181;-69
2023/07/23 04:24:58;;;;;;;4.13;2.77;;;15.80;3.40;;;;;;5053318;28;20415;-68
2023/07/23 04:27:24;;;;;;;4.50;3.20;;;15.80;3.30;;;;;;5053014;28;20206;-68
2023/07/23 04:29:49;;;;;;;4.77;3.10;;;15.80;3.50;;;;;;5053298;28;20248;-68
2023/07/23 04:32:15;;;;;;;5.23;3.97;;;15.80;3.50;;;;;;5052965;28;20231;-68
2023/07/23 04:34:41;;;;;;;5.13;4.13;;;15.80;4.00;;;;;;5053272;28;20238;-70
2023/07/23 04:37:07;;;;;;;4.70;3.67;;;15.80;4.70;;;;;;5052997;28;20659;-70
2023/07/23 04:39:33;;;;;;;8.03;4.23;;;15.80;4.70;;;;;;5051955;28;20934;-70
2023/07/23 04:41:58;;;;;;;11.70;4.60;;;15.80;4.70;;;;;;5052825;28;20452;-71
2023/07/23 04:44:24;;;;;;;3.80;2.80;;;15.90;4.80;;;;;;5052962;28;20903;-67
2023/07/23 04:46:49;;;;;;;4.00;3.57;;;15.80;4.70;;;;;;5053047;28;20224;-68
2023/07/23 04:49:15;;;;;;;5.10;3.30;;;15.90;4.80;;;;;;5053306;28;20366;-68
2023/07/23 04:51:40;;;;;;;4.60;3.50;;;15.90;4.70;;;;;;5052593;28;20315;-68
2023/07/23 04:54:06;;;;;;;5.00;4.10;;;15.90;4.70;;;;;;5053200;28;20189;-67
2023/07/23 04:56:32;;;;;;;5.77;3.27;;;16.00;4.50;;;;;;5052809;28;20173;-68
2023/07/23 04:58:58;;;;;;;4.20;3.53;;;16.00;4.80;;;;;;5052598;28;20216;-69
2023/07/23 05:01:24;;;;;;;4.27;3.60;;;16.10;4.50;;;;;;5052671;28;20470;-69
2023/07/23 05:03:49;;;;;;;6.80;3.13;;;16.10;3.90;;;;;;5052589;28;20173;-69
2023/07/23 05:06:15;;;;;;;4.97;4.40;;;16.10;4.30;;;;;;5052623;28;20475;-69
2023/07/23 05:08:40;;;;;;;5.07;3.70;;;16.20;3.50;;;;;;5052258;28;20280;-68
2023/07/23 05:11:06;;;;;;;5.50;3.63;;;16.30;3.50;;;;;;5052517;28;20182;-69
2023/07/23 05:13:33;;;;;;;4.70;3.83;;;16.40;3.30;;;;;;5052343;28;20171;-69
2023/07/23 05:16:02;;;;;;;5.00;3.60;;;16.50;2.70;;;;;;5052430;28;20177;-68
2023/07/23 05:18:28;;;;;;;5.47;3.50;;;16.60;2.70;;;;;;5052429;28;20457;-68
2023/07/23 05:20:54;;;;;;;5.20;3.60;;;16.70;2.90;;;;;;5052407;28;20477;-68
2023/07/23 05:23:22;;;;;;;5.30;4.30;;;16.90;1.00;;;;;;5052007;28;20516;-68
2023/07/23 05:25:48;;;;;;;3.70;3.10;;;17.10;1.10;;;;;;5052043;28;20464;-68
2023/07/23 05:28:14;;;;;;;5.10;3.47;;;17.20;1.00;;;;;;5052174;28;20902;-68
2023/07/23 05:30:40;;;;;;;4.93;3.47;;;17.50;1.00;;;;;;5052361;28;20592;-68
2023/07/23 05:33:06;;;;;;;3.73;3.27;;;17.80;1.00;;;;;;5051855;28;20432;-69
2023/07/23 05:35:32;;;;;;;5.53;3.53;;;19.40;1.00;;;;;;5052099;28;20520;-71
2023/07/23 05:37:57;;;;;;;4.40;4.00;;;22.20;1.00;;;;;;5052026;28;20467;-71
2023/07/23 05:40:23;;;;;;;4.90;4.60;;;24.80;1.00;;;;;;5052183;28;20651;-70
2023/07/23 05:42:48;;;;;;;5.67;5.27;;;27.20;1.00;;;;;;5051893;28;20171;-69
2023/07/23 05:45:14;;;;;;;6.10;5.60;;;29.40;1.00;;;;;;5022705;28;20222;-69
2023/07/23 05:47:39;;;;;;;5.53;5.20;;;31.50;1.00;;;;;;5011925;28;20211;-69
2023/07/23 05:50:05;;;;;;;6.07;5.43;;;33.10;1.00;;;;;;5011856;28;20206;-70
2023/07/23 05:52:31;;;;;;;6.60;6.10;;;34.60;1.00;;;;;;5011894;28;20194;-70
2023/07/23 05:54:57;;;;;;;5.77;5.37;;;35.00;1.00;;;;;;5011894;28;20415;-69
2023/07/23 05:57:22;;;;;;;6.47;6.00;;;33.70;1.00;;;;;;5011765;28;20188;-69
2023/07/23 05:59:48;;;;;;;5.77;5.37;;;35.20;1.00;;;;;;5012056;28;20219;-69
2023/07/23 06:02:13;;;;;;;6.77;5.40;;;35.70;1.00;;;;;;5011577;28;20286;-70
2023/07/23 06:04:39;;;;;;;6.37;5.77;;;36.00;1.00;;;;;;5011937;28;20203;-70
2023/07/23 06:07:05;;;;;;;6.60;6.10;;;37.10;1.00;;;;;;5010523;28;20230;-70
2023/07/23 06:09:30;;;;;;;5.73;5.33;;;37.20;1.00;;;;;;5011873;28;20254;-70
2023/07/23 06:11:56;;;;;;;6.77;6.13;;;36.10;1.00;;;;;;5011789;28;20256;-70
2023/07/23 06:14:21;;;;;;;6.37;5.90;;;36.80;1.00;;;;;;5011874;28;20172;-70
2023/07/23 06:16:47;;;;;;;7.37;5.63;;;36.30;1.00;;;;;;5011889;28;20187;-70
2023/07/23 06:19:13;;;;;;;8.13;5.80;;;37.60;1.00;;;;;;5011717;28;20199;-70
2023/07/23 06:21:39;;;;;;;6.50;5.97;;;37.30;1.00;;;;;;5011545;28;20191;-70
2023/07/23 06:24:04;;;;;;;6.03;5.53;;;38.80;1.00;;;;;;5011767;28;20455;-70
2023/07/23 06:26:30;;;;;;;6.40;5.90;;;39.00;1.00;;;;;;5011686;28;20220;-70
2023/07/23 06:28:56;;;;;;;6.90;5.47;;;37.40;1.00;;;;;;5022666;28;20198;-70
2023/07/23 06:31:22;;;;;;;5.70;5.30;;;35.20;1.00;;;;;;5031439;28;20182;-71
2023/07/23 06:33:47;;;;;;;5.70;5.30;;;33.80;1.00;;;;;;5031115;28;20233;-71
2023/07/23 06:36:13;;;;;;;5.97;5.57;;;32.10;1.00;;;;;;5031333;28;20222;-71
2023/07/23 06:38:38;;;;;;;5.20;4.70;;;31.50;1.00;;;;;;5028334;28;20215;-71
2023/07/23 06:41:05;;;;;;;5.30;4.90;;;31.20;1.00;;;;;;5011688;28;20673;-71
2023/07/23 06:43:31;;;;;;;4.60;4.30;;;30.80;1.00;;;;;;5011472;28;20203;-70
2023/07/23 06:45:56;;;;;;;5.47;5.07;;;30.30;1.00;;;;;;5011622;28;20548;-71
2023/07/23 06:48:27;;;;;;;5.00;4.60;;;29.50;1.00;;;;;;5010215;28;20206;-71
2023/07/23 06:50:53;;;;;;;5.00;4.70;;;28.90;1.00;;;;;;5011560;28;20195;-70
2023/07/23 06:53:19;;;;;;;5.60;5.10;;;28.60;1.00;;;;;;5011268;28;20494;-71
2023/07/23 06:56:13;;;;;;;4.70;4.40;;;29.10;1.00;;;;;;5011873;28;20186;-71
2023/07/23 06:58:42;;;;;;;5.50;5.10;;;29.80;1.00;;;;;;5002554;28;20231;-71
2023/07/23 07:01:08;;;;;;;6.27;5.53;;;29.70;1.00;;;;;;5012082;28;20494;-72
2023/07/23 07:03:34;;;;;;;5.17;4.77;;;29.70;1.00;;;;;;5014077;28;20820;-71
2023/07/23 07:06:00;;;;;;;4.67;4.37;;;30.40;1.00;;;;;;5015593;28;20493;-71
2023/07/23 07:08:27;;;;;;;5.57;5.17;;;31.00;1.00;;;;;;5014643;28;20203;-72
2023/07/23 07:11:00;;;;;;;4.50;4.10;;;31.10;1.00;;;;;;5017847;28;20477;-74
2023/07/23 07:13:31;;;;;;;5.20;4.80;;;31.40;1.00;;;;;;5014297;28;20490;-75
2023/07/23 07:15:56;;;;;;;4.77;4.37;;;31.80;1.00;;;;;;5014040;28;20426;-73
2023/07/23 07:18:25;;;;;;;4.60;4.20;;;30.80;1.00;;;;;;5015172;28;20450;-74
2023/07/23 07:20:58;;;;;;;4.97;4.67;;;31.50;1.00;;;;;;5015417;28;20188;-72
2023/07/23 07:23:25;;;;;;;4.50;4.20;;;32.60;1.00;;;;;;5014961;28;20418;-73
2023/07/23 07:25:55;;;;;;;4.37;4.07;;;34.20;1.00;;;;;;5013532;28;20925;-72
2023/07/23 07:28:21;;;;;;;4.80;4.50;;;36.10;1.00;;;;;;5014960;28;20851;-71
2023/07/23 07:30:46;;;;;;;4.47;4.17;;;36.30;1.00;;;;;;5014608;28;20446;-72
2023/07/23 07:33:12;;;;;;;4.60;4.30;;;36.30;1.00;;;;;;5014571;28;20229;-72
2023/07/23 07:35:37;;;;;;;4.60;4.30;;;37.00;1.00;;;;;;5014808;28;20657;-73
2023/07/23 07:38:03;;;;;;;4.80;4.50;;;38.70;1.00;;;;;;5015265;28;20609;-74
2023/07/23 07:40:30;;;;;;;4.90;4.60;;;39.70;1.00;;;;;;5032430;28;20187;-70
2023/07/23 07:42:55;;;;;;;5.37;4.87;;;40.60;1.00;;;;;;5034313;28;20497;-73
2023/07/23 07:45:21;;;;;;;5.23;4.90;;;39.80;1.00;;;;;;5034358;28;21015;-73
2023/07/23 07:47:47;;;;;;;4.90;4.60;;;38.80;1.00;;;;;;5034149;28;20225;-73
2023/07/23 07:50:12;;;;;;;4.60;4.30;;;36.60;1.00;;;;;;5032868;28;20663;-72
2023/07/23 07:52:38;;;;;;;4.67;4.27;;;35.00;1.00;;;;;;5034251;28;20184;-76
2023/07/23 07:55:04;;;;;;;5.20;4.90;;;33.70;1.00;;;;;;5034650;28;20627;-73
2023/07/23 07:57:29;;;;;;;5.00;4.60;;;32.60;1.00;;;;;;5058557;22;20211;-72
2023/07/23 07:59:55;;;;;;;4.93;4.53;;;31.70;1.00;;;;;;5034450;28;20222;-69
2023/07/23 08:02:21;;;;;;;4.90;4.50;;;32.20;1.00;;;;;;5034297;28;20214;-67
2023/07/23 08:04:47;;;;;;;4.70;4.40;;;33.20;1.00;;;;;;5031436;28;20292;-68
2023/07/23 08:07:13;;;;;;;4.93;4.60;;;33.80;1.00;;;;;;5030228;28;20207;-68
2023/07/23 08:09:41;;;;;;;5.17;4.73;;;34.70;1.00;;;;;;5031013;28;20195;-70
2023/07/23 08:12:08;;;;;;;4.80;4.40;;;35.90;1.00;;;;;;5028426;28;20439;-68
2023/07/23 08:14:37;;;;;;;5.03;4.63;;;34.90;1.00;;;;;;5030179;28;20920;-68
2023/07/23 08:17:03;;;;;;;4.33;4.13;;;35.40;1.00;;;;;;5031600;28;20802;-68
2023/07/23 08:19:29;;;;;;;4.77;4.47;;;36.00;1.00;;;;;;5031529;28;20781;-68
2023/07/23 08:21:55;;;;;;;4.90;4.50;;;35.70;1.00;;;;;;5030057;28;20444;-68
2023/07/23 08:24:21;;;;;;;4.40;4.10;;;37.30;1.00;;;;;;5030064;28;20190;-68
2023/07/23 08:26:49;;;;;;;4.57;4.27;;;38.10;1.00;;;;;;5032694;28;20211;-68
2023/07/23 08:29:19;;;;;;;4.63;4.30;;;38.50;1.00;;;;;;5030116;28;20191;-69
2023/07/23 08:31:45;;;;;;;4.27;3.87;;;37.40;1.00;;;;;;5030894;28;20422;-68
2023/07/23 08:34:11;;;;;;;4.20;3.90;;;38.10;1.00;;;;;;5030702;28;20921;-68
2023/07/23 08:36:37;;;;;;;4.87;4.47;;;36.60;1.00;;;;;;5030838;28;20819;-67
2023/07/23 08:39:04;;;;;;;5.83;4.13;;;35.60;1.00;;;;;;5030803;28;20484;-68
2023/07/23 08:41:33;;;;;;;6.03;5.43;;;35.90;1.00;;;;;;5031774;28;20676;-68
2023/07/23 08:44:17;;;;;;;4.53;4.23;;;35.70;1.00;;;;;;5030344;28;20422;-68
2023/07/23 08:46:47;;;;;;;4.50;4.20;;;35.60;1.00;;;;;;5030967;28;20453;-68
2023/07/23 08:49:16;;;;;;;4.43;4.13;;;35.70;1.00;;;;;;5030994;28;20438;-68
2023/07/23 08:51:47;;;;;;;5.00;4.70;;;37.30;1.00;;;;;;5029763;28;20449;-68
2023/07/23 08:54:15;;;;;;;4.80;4.40;;;38.60;1.00;;;;;;5028724;28;21009;-68
2023/07/23 08:56:41;;;;;;;8.63;4.63;;;37.10;1.00;;;;;;5030923;28;20417;-68
2023/07/23 08:59:08;;;;;;;4.57;4.27;;;35.50;1.00;;;;;;5029411;28;20837;-68
2023/07/23 09:01:38;;;;;;;6.07;4.73;;;35.30;1.00;;;;;;5029559;28;20492;-67
2023/07/23 09:04:10;;;;;;;3.80;3.60;;;35.00;1.00;;;;;;5030653;28;20521;-68
2023/07/23 09:06:36;;;;;;;3.93;3.63;;;33.90;1.00;;;;;;5030271;28;20464;-67
2023/07/23 09:09:07;;;;;;;4.10;3.80;;;33.00;1.00;;;;;;5029582;28;20493;-67
2023/07/23 09:11:34;;;;;;;4.40;4.00;;;31.70;1.00;;;;;;5029349;28;20472;-68
2023/07/23 09:14:01;;;;;;;4.20;3.83;;;30.50;1.00;;;;;;5033486;28;20908;-68
2023/07/23 09:16:27;;;;;;;4.03;3.73;;;30.10;1.00;;;;;;5033732;28;20406;-71
2023/07/23 09:18:53;;;;;;;5.50;5.00;;;30.30;1.00;;;;;;5033745;28;20448;-70
2023/07/23 09:21:27;;;;;;;4.67;4.27;;;30.20;1.00;;;;;;5033304;28;20221;-71
2023/07/23 09:23:56;;;;;;;4.53;4.23;;;30.00;1.00;;;;;;5033317;28;20186;-71
2023/07/23 09:26:24;;;;;;;4.23;3.80;;;29.50;1.00;;;;;;5032916;28;20452;-71
2023/07/23 09:28:51;;;;;;;4.00;3.70;;;29.70;1.00;;;;;;5033508;28;20437;-71
2023/07/23 09:31:29;;;;;;;3.50;3.30;;;29.60;1.00;;;;;;5033048;28;20493;-71
2023/07/23 09:34:00;;;;;;;4.33;4.00;;;29.60;1.00;;;;;;5033724;28;20406;-71
2023/07/23 09:36:27;;;;;;;3.70;3.40;;;29.50;1.00;;;;;;5033390;28;20472;-71
2023/07/23 09:38:58;;;;;;;3.50;3.30;;;29.60;1.00;;;;;;5033248;28;20434;-71
2023/07/23 09:41:29;;;;;;;3.90;3.60;;;29.70;1.00;;;;;;5033195;28;20410;-70
2023/07/23 09:43:58;;;;;;;4.50;4.20;;;30.00;1.00;;;;;;5032774;28;20529;-70
2023/07/23 09:46:25;;;;;;;4.07;3.80;;;30.00;1.00;;;;;;5032883;28;20458;-71
2023/07/23 09:48:51;;;;;;;4.63;4.10;;;30.20;1.00;;;;;;5033916;28;20500;-71
2023/07/23 09:51:17;;;;;;;4.03;3.70;;;30.00;1.00;;;;;;5033543;28;20414;-68
2023/07/23 09:53:45;;;;;;;3.93;3.63;;;29.50;1.00;;;;;;5033385;28;20203;-72
2023/07/23 09:56:13;;;;;;;4.63;4.23;;;29.50;1.00;;;;;;5032863;28;20221;-70
2023/07/23 09:58:39;;;;;;;5.43;4.50;;;29.50;1.00;;;;;;5032775;28;20467;-71
2023/07/23 10:01:07;;;;;;;4.47;4.07;;;29.80;1.00;;;;;;5031541;28;20430;-70
2023/07/23 10:03:34;;;;;;;4.90;4.50;;;29.40;1.00;;;;;;5032721;28;20414;-70
2023/07/23 10:05:59;;;;;;;5.30;4.80;;;29.30;1.00;;;;;;5032577;28;20465;-70
2023/07/23 10:08:27;;;;;;;4.67;4.23;;;29.20;1.00;;;;;;5032574;28;20446;-70
2023/07/23 10:10:52;;;;;;;4.40;4.10;;;28.90;1.00;;;;;;5031636;28;20175;-70
2023/07/23 10:13:18;;;;;;;3.87;3.57;;;28.60;1.00;;;;;;5030989;28;20414;-70
2023/07/23 10:15:46;;;;;;;4.10;3.80;;;29.00;1.00;;;;;;5031493;28;20239;-70
2023/07/23 10:18:12;;;;;;;4.10;3.80;;;28.80;1.00;;;;;;5032677;28;20195;-71
2023/07/23 10:20:39;;;;;;;4.50;4.20;;;29.30;1.00;;;;;;5032618;28;20432;-70
2023/07/23 10:23:08;;;;;;;4.97;4.57;;;29.80;1.00;;;;;;5032734;28;20507;-70
2023/07/23 10:25:35;;;;;;;5.77;5.27;;;29.20;1.00;;;;;;5031303;28;20418;-70
2023/07/23 10:28:05;;;;;;;4.83;4.53;;;29.30;1.00;;;;;;5032364;28;20425;-70
2023/07/23 10:30:33;;;;;;;5.23;4.83;;;29.30;1.00;;;;;;5032358;28;20497;-71
2023/07/23 10:33:11;;;;;;;5.67;5.07;;;28.40;1.00;;;;;;5031634;28;20422;-70
2023/07/23 10:35:51;;;;;;;5.93;5.03;;;28.40;1.00;;;;;;5032283;28;20413;-68
2023/07/23 10:38:25;;;;;;;4.80;4.40;;;28.00;1.00;;;;;;5033276;28;20532;-69
2023/07/23 10:40:50;;;;;;;4.87;4.50;;;27.90;1.00;;;;;;5036785;28;20398;-69
2023/07/23 10:43:17;;;;;;;4.90;4.50;;;27.70;1.00;;;;;;5034672;28;20425;-69
2023/07/23 10:46:03;;;;;;;4.90;4.50;;;27.70;1.00;;;;;;5036005;28;20536;-69
2023/07/23 10:48:45;;;;;;;5.50;5.00;;;27.90;1.00;;;;;;5034915;28;20593;-69
2023/07/23 10:51:29;;;;;;;5.60;5.10;;;27.80;1.00;;;;;;5035130;28;20497;-70
2023/07/23 10:53:58;;;;;;;5.57;5.07;;;27.50;1.00;;;;;;5036017;28;20520;-69
2023/07/23 10:56:40;;;;;;;5.33;4.93;;;27.50;1.00;;;;;;5035954;28;20418;-69
2023/07/23 10:59:10;;;;;;;5.13;4.73;;;27.50;1.00;;;;;;5025944;28;20521;-71
2023/07/23 11:01:39;;;;;;;4.93;4.50;;;27.80;1.00;;;;;;5015898;28;20469;-70
2023/07/23 11:04:24;;;;;;;4.77;4.43;;;28.30;1.00;;;;;;5016125;28;20847;-69
2023/07/23 11:07:00;;;;;;;5.73;5.10;;;28.80;1.00;;;;;;5014875;28;20454;-69
2023/07/23 11:09:31;;;;;;;6.20;5.60;;;28.80;1.00;;;;;;5025634;28;20445;-69
2023/07/23 11:11:58;;;;;;;6.93;6.03;;;28.90;1.00;;;;;;5035398;28;20402;-69
2023/07/23 11:14:26;;;;;;;6.40;5.80;;;28.70;1.00;;;;;;5034094;28;20955;-69
2023/07/23 11:16:54;;;;;;;5.53;5.10;;;28.60;1.00;;;;;;5031091;28;20415;-69
2023/07/23 11:19:21;;;;;;;5.90;5.40;;;28.40;1.00;;;;;;5016140;28;20954;-69
2023/07/23 11:21:52;;;;;;;6.37;5.87;;;28.60;1.00;;;;;;5028624;28;20488;-70
2023/07/23 11:24:19;;;;;;;5.50;5.10;;;29.00;1.00;;;;;;5034006;28;20433;-70
2023/07/23 11:26:45;;;;;;;5.90;5.40;;;28.90;1.00;;;;;;5035417;28;20465;-69
2023/07/23 11:29:11;;;;;;;5.67;5.27;;;28.80;1.00;;;;;;5034968;28;20445;-69
2023/07/23 11:31:40;;;;;;;5.20;4.80;;;28.60;1.00;;;;;;5033555;28;20915;-69
2023/07/23 11:34:07;;;;;;;5.27;4.87;;;28.50;1.00;;;;;;5035114;28;20791;-69
2023/07/23 11:36:34;;;;;;;4.87;4.47;;;28.30;1.00;;;;;;5033627;28;20414;-69
2023/07/23 11:39:00;;;;;;;8.60;5.60;;;28.20;1.00;;;;;;5034893;28;20812;-69
2023/07/23 11:41:41;;;;;;;5.70;5.20;;;28.20;1.00;;;;;;5034784;28;20410;-69
2023/07/23 11:44:11;;;;;;;5.97;5.47;;;28.30;1.00;;;;;;5035168;28;20416;-69
2023/07/23 11:46:39;;;;;;;14.50;5.83;;;28.60;1.00;;;;;;5034799;28;20530;-69
2023/07/23 11:49:07;;;;;;;6.57;5.03;;;28.70;1.00;;;;;;5034502;28;20489;-68
2023/07/23 11:51:33;;;;;;;5.33;4.93;;;28.70;1.00;;;;;;5033320;28;20414;-71
2023/07/23 11:54:07;;;;;;;6.57;5.33;;;28.90;1.00;;;;;;5030140;28;20933;-70
2023/07/23 11:56:38;;;;;;;6.00;5.50;;;29.10;1.00;;;;;;5022832;28;20422;-71
2023/07/23 11:59:08;;;;;;;6.33;5.73;;;29.20;1.00;;;;;;5033423;28;20461;-71
2023/07/23 12:01:38;;;;;;;5.63;5.20;;;29.40;1.00;;;;;;5033287;28;20953;-71
2023/07/23 12:04:09;;;;;;;5.27;4.87;;;29.40;1.00;;;;;;5033372;28;20993;-71
2023/07/23 12:06:37;;;;;;;5.20;4.80;;;29.50;1.00;;;;;;5033525;28;20458;-70
2023/07/23 12:09:10;;;;;;;5.53;5.10;;;29.80;1.00;;;;;;5034655;28;20516;-71
2023/07/23 12:11:42;;;;;;;5.83;5.37;;;30.10;1.00;;;;;;5034011;28;20454;-71
2023/07/23 12:14:15;;;;;;;5.43;4.93;;;30.00;1.00;;;;;;5033593;28;20782;-70
2023/07/23 12:16:49;;;;;;;5.90;5.40;;;30.10;1.00;;;;;;5034897;28;20417;-71
2023/07/23 12:19:21;;;;;;;5.93;5.47;;;30.30;1.00;;;;;;5034461;28;20449;-71
2023/07/23 12:21:59;;;;;;;5.77;5.10;;;30.00;1.00;;;;;;5034361;28;20608;-71
2023/07/23 12:24:29;;;;;;;4.83;4.43;;;29.80;1.00;;;;;;5034533;28;20517;-71
2023/07/23 12:27:01;;;;;;;5.40;4.60;;;29.70;1.00;;;;;;5034952;28;21000;-70
2023/07/23 12:29:28;;;;;;;5.40;5.00;;;29.60;1.00;;;;;;5034510;28;20457;-70
2023/07/23 12:32:14;;;;;;;5.50;4.97;;;29.40;1.00;;;;;;5032486;28;20499;-70
2023/07/23 12:34:42;;;;;;;4.37;4.03;;;29.40;1.00;;;;;;5030932;28;20426;-70
2023/07/23 12:37:08;;;;;;;5.00;4.70;;;29.20;1.00;;;;;;5026061;28;20878;-72
2023/07/23 12:39:34;;;;;;;7.30;5.23;;;29.20;1.00;;;;;;5013995;28;20533;-68
2023/07/23 12:42:00;;;;;;;5.00;4.60;;;29.20;1.00;;;;;;5013797;28;20521;-69
2023/07/23 12:44:25;;;;;;;4.93;4.63;;;29.10;1.00;;;;;;5025177;28;20555;-70
2023/07/23 12:46:51;;;;;;;4.90;4.60;;;29.10;1.00;;;;;;5033536;28;20249;-70
2023/07/23 12:49:17;;;;;;;5.07;4.77;;;29.20;1.00;;;;;;5033462;28;20935;-69
2023/07/23 12:51:42;;;;;;;5.27;4.87;;;29.30;1.00;;;;;;5033152;28;20414;-69
2023/07/23 12:54:08;;;;;;;5.70;5.20;;;28.90;1.00;;;;;;5021617;28;20182;-69
2023/07/23 12:56:34;;;;;;;4.70;4.40;;;29.30;1.00;;;;;;5027734;28;20190;-69
2023/07/23 12:58:59;;;;;;;5.00;4.60;;;29.40;1.00;;;;;;5032246;28;20676;-69